sensor_id;sensor_type;location;lat;lon;timestamp;temperature;humidity
5394;DHT22;2720;52.396;10.064;2023-07-29T00:00:03;16.70;99.90
5394;DHT22;2720;52.396;10.064;2023-07-29T00:02:30;16.70;99.90
5394;DHT22;2720;52.396;10.064;2023-07-29T00:04:58;16.60;99.90
5394;DHT22;2720;52.396;10.064;2023-07-29T00:07:24;16.60;99.90
5394;DHT22;2720;52.396;10.064;2023-07-29T00:09:52;16.60;99.90
5394;DHT22;2720;52.396;10.064;2023-07-29T00:12:19;16.60;99.90
5394;DHT22;2720;52.396;10.064;2023-07-29T00:14:46;16.60;99.90
5394;DHT22;2720;52.396;10.064;2023-07-29T00:17:14;16.60;99.90
5394;DHT22;2720;52.396;10.064;2023-07-29T00:19:41;16.60;99.90
5394;DHT22;2720;52.396;10.064;2023-07-29T00:22:08;16.60;99.90
5394;DHT22;2720;52.396;10.064;2023-07-29T00:24:35;16.80;99.90
5394;DHT22;2720;52.396;10.064;2023-07-29T00:27:02;16.80;99.90
5394;DHT22;2720;52.396;10.064;2023-07-29T00:29:29;17.00;99.90
5394;DHT22;2720;52.396;10.064;2023-07-29T00:31:56;17.10;99.90
5394;DHT22;2720;52.396;10.064;2023-07-29T00:34:24;17.20;99.90
5394;DHT22;2720;52.396;10.064;2023-07-29T00:36:51;17.30;99.90
5394;DHT22;2720;52.396;10.064;2023-07-29T00:39:18;17.30;99.90
5394;DHT22;2720;52.396;10.064;2023-07-29T00:41:45;17.30;99.90
5394;DHT22;2720;52.396;10.064;2023-07-29T00:44:12;17.30;99.90
5394;DHT22;2720;52.396;10.064;2023-07-29T00:46:40;17.40;99.90
5394;DHT22;2720;52.396;10.064;2023-07-29T00:49:08;17.40;99.90
5394;DHT22;2720;52.396;10.064;2023-07-29T00:51:36;17.40;99.90
5394;DHT22;2720;52.396;10.064;2023-07-29T00:54:03;17.40;99.90
5394;DHT22;2720;52.396;10.064;2023-07-29T00:56:30;17.40;99.90
5394;DHT22;2720;52.396;10.064;2023-07-29T00:58:57;17.40;99.90
5394;DHT22;2720;52.396;10.064;2023-07-29T01:01:27;17.40;99.90
5394;DHT22;2720;52.396;10.064;2023-07-29T01:03:54;17.40;99.90
5394;DHT22;2720;52.396;10.064;2023-07-29T01:06:26;17.40;99.90
5394;DHT22;2720;52.396;10.064;2023-07-29T01:09:02;17.40;99.90
5394;DHT22;2720;52.396;10.064;2023-07-29T01:11:36;17.30;99.90
5394;DHT22;2720;52.396;10.064;2023-07-29T01:14:16;17.40;99.90
5394;DHT22;2720;52.396;10.064;2023-07-29T01:16:49;17.40;99.90
5394;DHT22;2720;52.396;10.064;2023-07-29T01:19:38;17.30;99.90
5394;DHT22;2720;52.396;10.064;2023-07-29T01:22:10;17.30;99.90
5394;DHT22;2720;52.396;10.064;2023-07-29T01:24:39;17.30;99.90
5394;DHT22;2720;52.396;10.064;2023-07-29T01:27:06;17.30;99.90
5394;DHT22;2720;52.396;10.064;2023-07-29T01:29:33;17.20;99.90
5394;DHT22;2720;52.396;10.064;2023-07-29T01:32:04;17.20;99.90
5394;DHT22;2720;52.396;10.064;2023-07-29T01:34:41;17.20;99.90
5394;DHT22;2720;52.396;10.064;2023-07-29T01:37:15;17.20;99.90
5394;DHT22;2720;52.396;10.064;2023-07-29T01:39:45;17.10;99.90
5394;DHT22;2720;52.396;10.064;2023-07-29T01:44:40;17.10;99.90
5394;DHT22;2720;52.396;10.064;2023-07-29T01:47:08;17.00;99.90
5394;DHT22;2720;52.396;10.064;2023-07-29T01:52:02;16.90;99.90
5394;DHT22;2720;52.396;10.064;2023-07-29T01:56:58;16.80;99.90
5394;DHT22;2720;52.396;10.064;2023-07-29T01:59:25;16.80;99.90
5394;DHT22;2720;52.396;10.064;2023-07-29T02:04:19;16.90;99.90
5394;DHT22;2720;52.396;10.064;2023-07-29T02:09:13;17.00;99.90
5394;DHT22;2720;52.396;10.064;2023-07-29T02:14:08;17.10;99.90
5394;DHT22;2720;52.396;10.064;2023-07-29T02:23:58;17.20;99.90
5394;DHT22;2720;52.396;10.064;2023-07-29T02:28:53;17.30;99.90
5394;DHT22;2720;52.396;10.064;2023-07-29T02:31:23;17.30;99.90
5394;DHT22;2720;52.396;10.064;2023-07-29T02:33:51;17.40;99.90
5394;DHT22;2720;52.396;10.064;2023-07-29T02:36:18;17.40;99.90
5394;DHT22;2720;52.396;10.064;2023-07-29T02:41:12;17.50;99.90
5394;DHT22;2720;52.396;10.064;2023-07-29T02:43:42;17.40;99.90
5394;DHT22;2720;52.396;10.064;2023-07-29T02:46:09;17.50;99.90
5394;DHT22;2720;52.396;10.064;2023-07-29T02:48:37;17.50;99.90
5394;DHT22;2720;52.396;10.064;2023-07-29T02:55:58;17.50;99.90
5394;DHT22;2720;52.396;10.064;2023-07-29T03:00:53;17.50;99.90
5394;DHT22;2720;52.396;10.064;2023-07-29T03:05:48;17.50;99.90
5394;DHT22;2720;52.396;10.064;2023-07-29T03:10:42;17.50;99.90
5394;DHT22;2720;52.396;10.064;2023-07-29T03:13:09;17.60;99.90
5394;DHT22;2720;52.396;10.064;2023-07-29T03:15:36;17.50;99.90
5394;DHT22;2720;52.396;10.064;2023-07-29T03:22:59;17.50;99.90
5394;DHT22;2720;52.396;10.064;2023-07-29T03:25:26;17.50;99.90
5394;DHT22;2720;52.396;10.064;2023-07-29T03:32:48;17.50;99.90
5394;DHT22;2720;52.396;10.064;2023-07-29T03:35:16;17.60;99.90
5394;DHT22;2720;52.396;10.064;2023-07-29T03:40:11;17.60;99.90
5394;DHT22;2720;52.396;10.064;2023-07-29T03:42:38;17.70;99.90
5394;DHT22;2720;52.396;10.064;2023-07-29T03:45:06;17.70;99.90
5394;DHT22;2720;52.396;10.064;2023-07-29T03:50:02;17.80;99.90
5394;DHT22;2720;52.396;10.064;2023-07-29T03:52:30;17.80;99.90
5394;DHT22;2720;52.396;10.064;2023-07-29T03:57:25;18.00;99.90
5394;DHT22;2720;52.396;10.064;2023-07-29T03:59:52;17.90;99.90
5394;DHT22;2720;52.396;10.064;2023-07-29T04:02:20;17.90;99.90
5394;DHT22;2720;52.396;10.064;2023-07-29T04:04:47;17.90;99.90
5394;DHT22;2720;52.396;10.064;2023-07-29T04:07:14;17.90;99.90
5394;DHT22;2720;52.396;10.064;2023-07-29T04:09:41;17.90;99.90
5394;DHT22;2720;52.396;10.064;2023-07-29T04:12:09;17.90;99.90
5394;DHT22;2720;52.396;10.064;2023-07-29T04:14:37;17.90;99.90
5394;DHT22;2720;52.396;10.064;2023-07-29T04:17:05;18.00;99.90
5394;DHT22;2720;52.396;10.064;2023-07-29T04:19:32;18.00;99.90
5394;DHT22;2720;52.396;10.064;2023-07-29T04:21:59;18.00;99.90
5394;DHT22;2720;52.396;10.064;2023-07-29T04:24:26;17.90;99.90
5394;DHT22;2720;52.396;10.064;2023-07-29T04:26:53;17.90;99.90
5394;DHT22;2720;52.396;10.064;2023-07-29T04:31:49;18.00;99.90
5394;DHT22;2720;52.396;10.064;2023-07-29T04:34:17;18.00;99.90
5394;DHT22;2720;52.396;10.064;2023-07-29T04:36:44;18.00;99.90
5394;DHT22;2720;52.396;10.064;2023-07-29T04:39:11;18.00;99.90
5394;DHT22;2720;52.396;10.064;2023-07-29T04:41:38;18.00;99.90
5394;DHT22;2720;52.396;10.064;2023-07-29T04:44:05;17.80;99.90
5394;DHT22;2720;52.396;10.064;2023-07-29T04:46:32;17.90;99.90
5394;DHT22;2720;52.396;10.064;2023-07-29T04:49:00;17.90;99.90
5394;DHT22;2720;52.396;10.064;2023-07-29T04:51:28;18.00;99.90
5394;DHT22;2720;52.396;10.064;2023-07-29T04:58:49;18.10;99.90
5394;DHT22;2720;52.396;10.064;2023-07-29T05:01:16;18.10;99.90
5394;DHT22;2720;52.396;10.064;2023-07-29T05:03:43;18.20;99.90
5394;DHT22;2720;52.396;10.064;2023-07-29T05:06:11;18.20;99.90
5394;DHT22;2720;52.396;10.064;2023-07-29T05:11:05;18.30;99.90
5394;DHT22;2720;52.396;10.064;2023-07-29T05:23:22;18.40;99.90
5394;DHT22;2720;52.396;10.064;2023-07-29T05:25:50;18.40;99.90
5394;DHT22;2720;52.396;10.064;2023-07-29T05:28:17;18.40;99.90
5394;DHT22;2720;52.396;10.064;2023-07-29T05:30:44;18.40;99.90
5394;DHT22;2720;52.396;10.064;2023-07-29T05:40:35;18.40;99.90
5394;DHT22;2720;52.396;10.064;2023-07-29T05:45:29;18.40;99.90
5394;DHT22;2720;52.396;10.064;2023-07-29T05:47:57;18.40;99.90
5394;DHT22;2720;52.396;10.064;2023-07-29T05:50:24;18.30;99.90
5394;DHT22;2720;52.396;10.064;2023-07-29T05:52:51;18.30;99.90
5394;DHT22;2720;52.396;10.064;2023-07-29T05:55:18;18.30;99.90
5394;DHT22;2720;52.396;10.064;2023-07-29T05:57:46;18.30;99.90
5394;DHT22;2720;52.396;10.064;2023-07-29T06:00:13;18.20;99.90
5394;DHT22;2720;52.396;10.064;2023-07-29T06:05:08;18.20;99.90
5394;DHT22;2720;52.396;10.064;2023-07-29T06:07:35;18.10;99.90
5394;DHT22;2720;52.396;10.064;2023-07-29T06:10:02;18.10;99.90
5394;DHT22;2720;52.396;10.064;2023-07-29T06:12:29;18.10;99.90
5394;DHT22;2720;52.396;10.064;2023-07-29T06:14:57;18.20;99.90
5394;DHT22;2720;52.396;10.064;2023-07-29T06:17:24;18.30;99.90
5394;DHT22;2720;52.396;10.064;2023-07-29T06:19:51;18.20;99.90
5394;DHT22;2720;52.396;10.064;2023-07-29T06:22:18;18.50;99.90
5394;DHT22;2720;52.396;10.064;2023-07-29T06:24:45;18.70;99.90
5394;DHT22;2720;52.396;10.064;2023-07-29T06:32:08;19.10;99.90
5394;DHT22;2720;52.396;10.064;2023-07-29T06:37:02;19.20;99.90
5394;DHT22;2720;52.396;10.064;2023-07-29T06:41:56;19.30;99.90
5394;DHT22;2720;52.396;10.064;2023-07-29T06:46:50;19.20;99.90
5394;DHT22;2720;52.396;10.064;2023-07-29T06:49:19;19.10;99.90
5394;DHT22;2720;52.396;10.064;2023-07-29T06:51:46;19.10;99.90
5394;DHT22;2720;52.396;10.064;2023-07-29T06:56:40;19.10;99.90
5394;DHT22;2720;52.396;10.064;2023-07-29T06:59:07;19.00;99.90
5394;DHT22;2720;52.396;10.064;2023-07-29T07:01:34;19.00;99.90
5394;DHT22;2720;52.396;10.064;2023-07-29T07:06:30;19.10;99.90
5394;DHT22;2720;52.396;10.064;2023-07-29T07:11:24;19.30;99.90
5394;DHT22;2720;52.396;10.064;2023-07-29T07:13:51;19.50;99.90
5394;DHT22;2720;52.396;10.064;2023-07-29T07:18:45;19.80;99.90
5394;DHT22;2720;52.396;10.064;2023-07-29T07:23:41;20.10;99.90
5394;DHT22;2720;52.396;10.064;2023-07-29T07:26:08;20.20;99.90
5394;DHT22;2720;52.396;10.064;2023-07-29T07:28:35;20.30;99.90
5394;DHT22;2720;52.396;10.064;2023-07-29T07:31:02;20.30;99.90
5394;DHT22;2720;52.396;10.064;2023-07-29T07:33:29;20.40;99.90
5394;DHT22;2720;52.396;10.064;2023-07-29T07:35:56;20.40;99.90
5394;DHT22;2720;52.396;10.064;2023-07-29T07:38:23;20.50;99.90
5394;DHT22;2720;52.396;10.064;2023-07-29T07:40:54;20.60;99.90
5394;DHT22;2720;52.396;10.064;2023-07-29T07:43:22;20.50;99.90
5394;DHT22;2720;52.396;10.064;2023-07-29T07:45:49;20.60;99.90
5394;DHT22;2720;52.396;10.064;2023-07-29T07:48:16;20.60;99.90
5394;DHT22;2720;52.396;10.064;2023-07-29T07:50:45;20.60;99.90
5394;DHT22;2720;52.396;10.064;2023-07-29T07:53:12;20.60;99.90
5394;DHT22;2720;52.396;10.064;2023-07-29T07:55:39;20.70;99.90
5394;DHT22;2720;52.396;10.064;2023-07-29T07:58:08;20.70;99.90
5394;DHT22;2720;52.396;10.064;2023-07-29T08:00:34;20.70;99.90
5394;DHT22;2720;52.396;10.064;2023-07-29T08:05:29;21.00;99.90
5394;DHT22;2720;52.396;10.064;2023-07-29T08:07:56;21.00;99.90
5394;DHT22;2720;52.396;10.064;2023-07-29T08:10:24;21.40;99.90
5394;DHT22;2720;52.396;10.064;2023-07-29T08:12:51;21.70;99.90
5394;DHT22;2720;52.396;10.064;2023-07-29T08:15:19;22.00;99.90
5394;DHT22;2720;52.396;10.064;2023-07-29T08:20:14;22.30;99.90
5394;DHT22;2720;52.396;10.064;2023-07-29T08:25:08;22.30;99.90
5394;DHT22;2720;52.396;10.064;2023-07-29T08:27:35;22.20;99.90
5394;DHT22;2720;52.396;10.064;2023-07-29T08:32:31;22.50;99.90
5394;DHT22;2720;52.396;10.064;2023-07-29T08:37:26;22.60;99.90
5394;DHT22;2720;52.396;10.064;2023-07-29T08:42:23;22.80;99.90
5394;DHT22;2720;52.396;10.064;2023-07-29T08:44:52;22.80;99.90
5394;DHT22;2720;52.396;10.064;2023-07-29T08:47:20;22.80;99.90
5394;DHT22;2720;52.396;10.064;2023-07-29T08:49:51;22.90;99.90
5394;DHT22;2720;52.396;10.064;2023-07-29T08:52:18;23.10;99.90
5394;DHT22;2720;52.396;10.064;2023-07-29T08:54:46;23.40;99.90
5394;DHT22;2720;52.396;10.064;2023-07-29T08:59:41;23.60;99.90
5394;DHT22;2720;52.396;10.064;2023-07-29T09:04:35;23.50;99.90
5394;DHT22;2720;52.396;10.064;2023-07-29T09:07:05;23.50;99.90
5394;DHT22;2720;52.396;10.064;2023-07-29T09:11:59;23.30;99.90
5394;DHT22;2720;52.396;10.064;2023-07-29T09:19:25;23.10;99.90
5394;DHT22;2720;52.396;10.064;2023-07-29T09:24:21;22.60;99.90
5394;DHT22;2720;52.396;10.064;2023-07-29T09:26:51;22.40;99.90
5394;DHT22;2720;52.396;10.064;2023-07-29T09:29:22;22.30;99.90
5394;DHT22;2720;52.396;10.064;2023-07-29T09:31:49;22.10;99.90
5394;DHT22;2720;52.396;10.064;2023-07-29T09:34:16;22.00;99.90
5394;DHT22;2720;52.396;10.064;2023-07-29T09:39:12;21.90;99.90
5394;DHT22;2720;52.396;10.064;2023-07-29T09:41:41;21.90;99.90
5394;DHT22;2720;52.396;10.064;2023-07-29T09:44:08;21.90;99.90
5394;DHT22;2720;52.396;10.064;2023-07-29T09:46:37;22.10;99.90
5394;DHT22;2720;52.396;10.064;2023-07-29T09:49:05;22.40;99.90
5394;DHT22;2720;52.396;10.064;2023-07-29T09:51:37;22.40;99.90
5394;DHT22;2720;52.396;10.064;2023-07-29T09:54:04;22.70;99.90
5394;DHT22;2720;52.396;10.064;2023-07-29T09:56:31;22.90;99.90
5394;DHT22;2720;52.396;10.064;2023-07-29T09:59:00;23.20;99.90
5394;DHT22;2720;52.396;10.064;2023-07-29T10:01:27;23.20;99.90
5394;DHT22;2720;52.396;10.064;2023-07-29T10:03:55;23.40;99.90
5394;DHT22;2720;52.396;10.064;2023-07-29T10:06:26;23.80;99.90
5394;DHT22;2720;52.396;10.064;2023-07-29T10:08:53;24.10;99.90
5394;DHT22;2720;52.396;10.064;2023-07-29T10:11:21;24.20;99.90
5394;DHT22;2720;52.396;10.064;2023-07-29T10:13:48;24.50;99.90
5394;DHT22;2720;52.396;10.064;2023-07-29T10:16:18;24.80;99.90
5394;DHT22;2720;52.396;10.064;2023-07-29T10:18:45;24.90;99.90
5394;DHT22;2720;52.396;10.064;2023-07-29T10:21:13;24.90;99.90
5394;DHT22;2720;52.396;10.064;2023-07-29T10:23:44;24.90;99.90
5394;DHT22;2720;52.396;10.064;2023-07-29T10:26:14;24.00;99.90
5394;DHT22;2720;52.396;10.064;2023-07-29T10:28:47;24.00;99.90
5394;DHT22;2720;52.396;10.064;2023-07-29T10:31:17;23.30;99.90
5394;DHT22;2720;52.396;10.064;2023-07-29T10:33:45;23.00;99.90
5394;DHT22;2720;52.396;10.064;2023-07-29T10:36:12;22.90;99.90
5394;DHT22;2720;52.396;10.064;2023-07-29T10:38:41;22.90;99.90
5394;DHT22;2720;52.396;10.064;2023-07-29T10:41:08;23.00;99.90
5394;DHT22;2720;52.396;10.064;2023-07-29T10:43:36;22.90;99.90
5394;DHT22;2720;52.396;10.064;2023-07-29T10:46:19;22.90;99.90
5394;DHT22;2720;52.396;10.064;2023-07-29T10:48:53;22.90;99.90
5394;DHT22;2720;52.396;10.064;2023-07-29T10:51:28;23.10;99.90
5394;DHT22;2720;52.396;10.064;2023-07-29T10:54:01;23.40;99.90
5394;DHT22;2720;52.396;10.064;2023-07-29T10:56:30;23.60;99.90
5394;DHT22;2720;52.396;10.064;2023-07-29T11:01:51;23.90;99.90
5394;DHT22;2720;52.396;10.064;2023-07-29T11:04:25;24.10;99.90
5394;DHT22;2720;52.396;10.064;2023-07-29T11:07:19;24.40;99.90
5394;DHT22;2720;52.396;10.064;2023-07-29T11:09:57;24.70;99.90
5394;DHT22;2720;52.396;10.064;2023-07-29T11:12:48;24.90;99.90
5394;DHT22;2720;52.396;10.064;2023-07-29T11:15:22;25.00;99.90
5394;DHT22;2720;52.396;10.064;2023-07-29T11:17:52;25.10;99.90
5394;DHT22;2720;52.396;10.064;2023-07-29T11:20:21;25.20;99.90
5394;DHT22;2720;52.396;10.064;2023-07-29T11:22:49;25.50;99.90
5394;DHT22;2720;52.396;10.064;2023-07-29T11:25:17;25.90;99.90
5394;DHT22;2720;52.396;10.064;2023-07-29T11:27:45;26.20;99.90
5394;DHT22;2720;52.396;10.064;2023-07-29T11:30:13;26.40;99.90
5394;DHT22;2720;52.396;10.064;2023-07-29T11:32:43;27.30;99.90
5394;DHT22;2720;52.396;10.064;2023-07-29T11:35:13;27.40;99.90
5394;DHT22;2720;52.396;10.064;2023-07-29T11:37:42;27.50;99.90
5394;DHT22;2720;52.396;10.064;2023-07-29T11:40:09;27.70;99.90
5394;DHT22;2720;52.396;10.064;2023-07-29T11:42:37;28.00;99.90
5394;DHT22;2720;52.396;10.064;2023-07-29T11:45:06;28.30;99.90
5394;DHT22;2720;52.396;10.064;2023-07-29T11:47:34;28.30;99.90
5394;DHT22;2720;52.396;10.064;2023-07-29T11:50:03;28.50;99.90
5394;DHT22;2720;52.396;10.064;2023-07-29T11:52:32;28.90;99.90
5394;DHT22;2720;52.396;10.064;2023-07-29T11:55:00;29.00;99.90
5394;DHT22;2720;52.396;10.064;2023-07-29T11:57:29;28.70;99.90
5394;DHT22;2720;52.396;10.064;2023-07-29T11:59:56;28.60;99.90
5394;DHT22;2720;52.396;10.064;2023-07-29T12:02:24;27.30;99.90
5394;DHT22;2720;52.396;10.064;2023-07-29T12:04:52;26.50;99.90
5394;DHT22;2720;52.396;10.064;2023-07-29T12:07:20;25.80;99.90
5394;DHT22;2720;52.396;10.064;2023-07-29T12:09:49;25.60;99.90
5394;DHT22;2720;52.396;10.064;2023-07-29T12:12:16;25.50;99.90
5394;DHT22;2720;52.396;10.064;2023-07-29T12:14:44;25.60;99.90
5394;DHT22;2720;52.396;10.064;2023-07-29T12:17:12;25.90;99.90
5394;DHT22;2720;52.396;10.064;2023-07-29T12:19:40;26.30;99.90
5394;DHT22;2720;52.396;10.064;2023-07-29T12:22:08;26.40;99.90
5394;DHT22;2720;52.396;10.064;2023-07-29T12:24:37;26.30;99.90
5394;DHT22;2720;52.396;10.064;2023-07-29T12:27:09;26.30;99.90
5394;DHT22;2720;52.396;10.064;2023-07-29T12:29:40;26.50;99.90
5394;DHT22;2720;52.396;10.064;2023-07-29T12:32:08;27.00;99.90
5394;DHT22;2720;52.396;10.064;2023-07-29T12:34:37;27.60;99.90
5394;DHT22;2720;52.396;10.064;2023-07-29T12:37:05;28.00;99.90
5394;DHT22;2720;52.396;10.064;2023-07-29T12:39:35;28.20;99.90
5394;DHT22;2720;52.396;10.064;2023-07-29T12:42:03;28.00;99.90
5394;DHT22;2720;52.396;10.064;2023-07-29T12:44:35;27.80;99.90
5394;DHT22;2720;52.396;10.064;2023-07-29T12:47:03;27.10;99.90
5394;DHT22;2720;52.396;10.064;2023-07-29T12:51:57;26.60;99.90
5394;DHT22;2720;52.396;10.064;2023-07-29T12:54:24;26.80;99.90
5394;DHT22;2720;52.396;10.064;2023-07-29T12:56:51;26.60;99.90
5394;DHT22;2720;52.396;10.064;2023-07-29T12:59:18;26.30;99.90
5394;DHT22;2720;52.396;10.064;2023-07-29T13:01:47;26.30;99.90
5394;DHT22;2720;52.396;10.064;2023-07-29T13:04:14;27.00;99.90
5394;DHT22;2720;52.396;10.064;2023-07-29T13:06:41;27.90;99.90
5394;DHT22;2720;52.396;10.064;2023-07-29T13:09:07;28.70;99.90
5394;DHT22;2720;52.396;10.064;2023-07-29T13:11:34;28.80;99.90
5394;DHT22;2720;52.396;10.064;2023-07-29T13:14:01;29.10;99.90
5394;DHT22;2720;52.396;10.064;2023-07-29T13:16:28;29.10;99.90
5394;DHT22;2720;52.396;10.064;2023-07-29T13:18:57;27.90;99.90
5394;DHT22;2720;52.396;10.064;2023-07-29T13:21:24;27.80;99.90
5394;DHT22;2720;52.396;10.064;2023-07-29T13:23:51;27.00;99.90
5394;DHT22;2720;52.396;10.064;2023-07-29T13:26:18;26.00;99.90
5394;DHT22;2720;52.396;10.064;2023-07-29T13:28:45;25.70;99.90
5394;DHT22;2720;52.396;10.064;2023-07-29T13:31:12;25.70;99.90
5394;DHT22;2720;52.396;10.064;2023-07-29T13:33:39;26.10;99.90
5394;DHT22;2720;52.396;10.064;2023-07-29T13:36:08;26.50;99.90
5394;DHT22;2720;52.396;10.064;2023-07-29T13:38:35;26.20;99.90
5394;DHT22;2720;52.396;10.064;2023-07-29T13:41:02;26.60;99.90
5394;DHT22;2720;52.396;10.064;2023-07-29T13:43:29;27.40;99.90
5394;DHT22;2720;52.396;10.064;2023-07-29T13:45:56;27.80;99.90
5394;DHT22;2720;52.396;10.064;2023-07-29T13:48:23;28.00;99.90
5394;DHT22;2720;52.396;10.064;2023-07-29T13:50:50;28.20;99.90
5394;DHT22;2720;52.396;10.064;2023-07-29T13:53:19;28.70;99.90
5394;DHT22;2720;52.396;10.064;2023-07-29T13:55:46;29.30;99.90
5394;DHT22;2720;52.396;10.064;2023-07-29T13:58:13;30.30;99.90
5394;DHT22;2720;52.396;10.064;2023-07-29T15:34:09;30.80;99.90
5394;DHT22;2720;52.396;10.064;2023-07-29T15:36:38;30.80;99.90
5394;DHT22;2720;52.396;10.064;2023-07-29T15:39:05;30.80;99.90
5394;DHT22;2720;52.396;10.064;2023-07-29T15:41:32;30.90;99.90
5394;DHT22;2720;52.396;10.064;2023-07-29T15:44:00;30.90;99.10
5394;DHT22;2720;52.396;10.064;2023-07-29T15:46:26;30.70;99.70
5394;DHT22;2720;52.396;10.064;2023-07-29T15:48:53;29.90;99.30
5394;DHT22;2720;52.396;10.064;2023-07-29T15:51:24;29.30;99.90
5394;DHT22;2720;52.396;10.064;2023-07-29T15:53:53;28.90;99.90
5394;DHT22;2720;52.396;10.064;2023-07-29T15:56:20;28.70;99.90
5394;DHT22;2720;52.396;10.064;2023-07-29T15:58:47;28.90;99.90
5394;DHT22;2720;52.396;10.064;2023-07-29T16:01:14;29.20;99.90
5394;DHT22;2720;52.396;10.064;2023-07-29T16:03:41;29.20;99.90
5394;DHT22;2720;52.396;10.064;2023-07-29T16:06:08;29.00;99.90
5394;DHT22;2720;52.396;10.064;2023-07-29T16:11:03;28.90;99.90
5394;DHT22;2720;52.396;10.064;2023-07-29T16:13:30;29.10;99.90
5394;DHT22;2720;52.396;10.064;2023-07-29T16:18:24;29.40;99.90
5394;DHT22;2720;52.396;10.064;2023-07-29T16:23:19;28.10;99.90
5394;DHT22;2720;52.396;10.064;2023-07-29T16:25:46;27.80;99.90
5394;DHT22;2720;52.396;10.064;2023-07-29T16:28:15;27.60;99.90
5394;DHT22;2720;52.396;10.064;2023-07-29T16:30:41;27.20;99.90
5394;DHT22;2720;52.396;10.064;2023-07-29T16:35:37;26.10;99.90
5394;DHT22;2720;52.396;10.064;2023-07-29T16:38:05;25.80;99.90
5394;DHT22;2720;52.396;10.064;2023-07-29T16:40:32;25.40;99.90
5394;DHT22;2720;52.396;10.064;2023-07-29T16:45:28;25.10;99.90
5394;DHT22;2720;52.396;10.064;2023-07-29T16:47:56;25.10;99.90
5394;DHT22;2720;52.396;10.064;2023-07-29T16:52:50;25.00;99.90
5394;DHT22;2720;52.396;10.064;2023-07-29T16:55:19;24.80;99.90
5394;DHT22;2720;52.396;10.064;2023-07-29T17:02:42;24.00;99.90
5394;DHT22;2720;52.396;10.064;2023-07-29T17:05:09;23.90;99.90
5394;DHT22;2720;52.396;10.064;2023-07-29T17:10:04;23.90;99.90
5394;DHT22;2720;52.396;10.064;2023-07-29T17:12:31;23.90;99.90
5394;DHT22;2720;52.396;10.064;2023-07-29T17:14:58;23.90;99.90
5394;DHT22;2720;52.396;10.064;2023-07-29T17:19:56;23.50;99.90
5394;DHT22;2720;52.396;10.064;2023-07-29T17:24:50;21.60;99.90
5394;DHT22;2720;52.396;10.064;2023-07-29T17:27:17;20.50;99.90
5394;DHT22;2720;52.396;10.064;2023-07-29T17:29:44;19.70;99.90
5394;DHT22;2720;52.396;10.064;2023-07-29T17:32:11;19.10;99.90
5394;DHT22;2720;52.396;10.064;2023-07-29T17:34:38;18.70;99.90
5394;DHT22;2720;52.396;10.064;2023-07-29T17:37:08;18.50;99.90
5394;DHT22;2720;52.396;10.064;2023-07-29T17:39:35;18.60;99.90
5394;DHT22;2720;52.396;10.064;2023-07-29T17:42:04;18.90;99.90
5394;DHT22;2720;52.396;10.064;2023-07-29T17:46:59;19.80;99.90
5394;DHT22;2720;52.396;10.064;2023-07-29T17:49:26;20.40;99.90
5394;DHT22;2720;52.396;10.064;2023-07-29T17:51:53;20.70;99.90
5394;DHT22;2720;52.396;10.064;2023-07-29T17:54:21;20.80;99.90
5394;DHT22;2720;52.396;10.064;2023-07-29T17:56:48;20.60;99.90
5394;DHT22;2720;52.396;10.064;2023-07-29T17:59:15;20.40;99.90
5394;DHT22;2720;52.396;10.064;2023-07-29T18:01:42;20.00;99.90
5394;DHT22;2720;52.396;10.064;2023-07-29T18:06:38;19.50;99.90
5394;DHT22;2720;52.396;10.064;2023-07-29T18:09:05;19.40;99.90
5394;DHT22;2720;52.396;10.064;2023-07-29T18:11:33;19.40;99.90
5394;DHT22;2720;52.396;10.064;2023-07-29T18:14:00;19.20;99.90
5394;DHT22;2720;52.396;10.064;2023-07-29T18:16:27;19.10;99.90
5394;DHT22;2720;52.396;10.064;2023-07-29T18:18:54;18.80;99.90
5394;DHT22;2720;52.396;10.064;2023-07-29T18:21:21;18.90;99.90
5394;DHT22;2720;52.396;10.064;2023-07-29T18:23:48;18.70;99.90
5394;DHT22;2720;52.396;10.064;2023-07-29T18:26:15;18.60;99.90
5394;DHT22;2720;52.396;10.064;2023-07-29T18:28:44;18.60;99.90
5394;DHT22;2720;52.396;10.064;2023-07-29T18:31:11;18.30;99.90
5394;DHT22;2720;52.396;10.064;2023-07-29T18:33:38;18.40;99.90
5394;DHT22;2720;52.396;10.064;2023-07-29T18:36:06;18.30;99.90
5394;DHT22;2720;52.396;10.064;2023-07-29T18:38:33;18.20;99.90
5394;DHT22;2720;52.396;10.064;2023-07-29T18:41:00;18.20;99.90
5394;DHT22;2720;52.396;10.064;2023-07-29T18:43:27;18.10;99.90
5394;DHT22;2720;52.396;10.064;2023-07-29T18:45:55;18.00;99.90
5394;DHT22;2720;52.396;10.064;2023-07-29T18:48:22;17.90;99.90
5394;DHT22;2720;52.396;10.064;2023-07-29T18:50:50;17.90;99.90
5394;DHT22;2720;52.396;10.064;2023-07-29T18:53:16;17.80;99.90
5394;DHT22;2720;52.396;10.064;2023-07-29T18:55:44;17.60;99.90
5394;DHT22;2720;52.396;10.064;2023-07-29T18:58:11;17.70;99.90
5394;DHT22;2720;52.396;10.064;2023-07-29T19:00:38;17.60;99.90
5394;DHT22;2720;52.396;10.064;2023-07-29T19:03:07;17.50;99.90
5394;DHT22;2720;52.396;10.064;2023-07-29T19:05:34;17.50;99.90
5394;DHT22;2720;52.396;10.064;2023-07-29T19:08:01;17.40;99.90
5394;DHT22;2720;52.396;10.064;2023-07-29T19:10:28;17.40;99.90
5394;DHT22;2720;52.396;10.064;2023-07-29T19:12:55;17.30;99.90
5394;DHT22;2720;52.396;10.064;2023-07-29T19:15:23;17.30;99.90
5394;DHT22;2720;52.396;10.064;2023-07-29T19:17:50;17.20;99.90
5394;DHT22;2720;52.396;10.064;2023-07-29T19:20:18;17.20;99.90
5394;DHT22;2720;52.396;10.064;2023-07-29T19:22:45;17.20;99.90
5394;DHT22;2720;52.396;10.064;2023-07-29T19:25:12;17.10;99.90
5394;DHT22;2720;52.396;10.064;2023-07-29T19:27:39;17.10;99.90
5394;DHT22;2720;52.396;10.064;2023-07-29T19:30:06;17.10;99.90
5394;DHT22;2720;52.396;10.064;2023-07-29T19:32:34;17.10;99.90
5394;DHT22;2720;52.396;10.064;2023-07-29T19:35:01;17.00;99.90
5394;DHT22;2720;52.396;10.064;2023-07-29T19:37:29;16.90;99.90
5394;DHT22;2720;52.396;10.064;2023-07-29T19:39:57;17.00;99.90
5394;DHT22;2720;52.396;10.064;2023-07-29T19:42:24;17.00;99.90
5394;DHT22;2720;52.396;10.064;2023-07-29T19:44:51;16.90;99.90
5394;DHT22;2720;52.396;10.064;2023-07-29T19:47:18;16.90;99.90
5394;DHT22;2720;52.396;10.064;2023-07-29T19:49:45;16.80;99.90
5394;DHT22;2720;52.396;10.064;2023-07-29T19:52:12;16.80;99.90
5394;DHT22;2720;52.396;10.064;2023-07-29T19:54:41;16.70;99.90
5394;DHT22;2720;52.396;10.064;2023-07-29T19:57:08;16.70;99.90
5394;DHT22;2720;52.396;10.064;2023-07-29T19:59:35;16.70;99.90
5394;DHT22;2720;52.396;10.064;2023-07-29T20:02:02;16.60;99.90
5394;DHT22;2720;52.396;10.064;2023-07-29T20:04:29;16.50;99.90
5394;DHT22;2720;52.396;10.064;2023-07-29T20:06:56;16.50;99.90
5394;DHT22;2720;52.396;10.064;2023-07-29T20:09:23;16.40;99.90
5394;DHT22;2720;52.396;10.064;2023-07-29T20:11:52;16.40;99.90
5394;DHT22;2720;52.396;10.064;2023-07-29T20:14:19;16.40;99.90
5394;DHT22;2720;52.396;10.064;2023-07-29T20:16:46;16.40;99.90
5394;DHT22;2720;52.396;10.064;2023-07-29T20:19:13;16.40;99.90
5394;DHT22;2720;52.396;10.064;2023-07-29T20:21:40;16.40;99.90
5394;DHT22;2720;52.396;10.064;2023-07-29T20:24:07;16.40;99.90